createdAt,value
2018-02-03T00:02:10.506Z,9.20
2018-02-03T00:04:38.103Z,15.93
2018-02-03T00:07:05.735Z,16.02
2018-02-03T00:09:33.335Z,9.32
2018-02-03T00:12:00.944Z,8.82
2018-02-03T00:14:28.575Z,11.90
2018-02-03T00:16:56.228Z,7.60
2018-02-03T00:19:23.867Z,10.27
2018-02-03T00:21:51.489Z,9.35
2018-02-03T00:24:19.113Z,10.75
2018-02-03T00:26:46.707Z,9.52
2018-02-03T00:29:14.331Z,9.65
2018-02-03T00:31:41.935Z,12.30
2018-02-03T00:34:09.559Z,11.23
2018-02-03T00:36:37.211Z,7.22
2018-02-03T00:39:04.860Z,14.15
2018-02-03T00:41:32.482Z,10.27
2018-02-03T00:44:00.135Z,11.95
2018-02-03T00:46:27.775Z,15.68
2018-02-03T00:48:55.759Z,13.35
2018-02-03T00:51:23.387Z,11.85
2018-02-03T00:53:51.054Z,13.75
2018-02-03T00:56:18.652Z,12.02
2018-02-03T00:58:46.251Z,12.60
2018-02-03T01:01:13.893Z,15.68
2018-02-03T01:03:41.532Z,12.95
2018-02-03T01:06:09.201Z,13.43
2018-02-03T01:08:36.837Z,11.68
2018-02-03T01:11:04.440Z,10.10
2018-02-03T01:13:32.068Z,12.40
2018-02-03T01:15:59.696Z,14.25
2018-02-03T01:18:27.340Z,12.37
2018-02-03T01:20:54.931Z,14.85
2018-02-03T01:23:22.566Z,16.35
2018-02-03T01:25:50.215Z,11.75
2018-02-03T01:28:17.808Z,17.27
2018-02-03T01:30:45.480Z,10.63
2018-02-03T01:33:13.104Z,14.23
2018-02-03T01:35:40.721Z,10.30
2018-02-03T01:38:08.332Z,12.32
2018-02-03T01:40:35.929Z,11.40
2018-02-03T01:43:03.552Z,10.40
2018-02-03T01:45:31.197Z,12.45
2018-02-03T01:47:58.787Z,16.08
2018-02-03T01:50:26.412Z,14.80
2018-02-03T01:52:54.051Z,15.10
2018-02-03T01:55:21.664Z,11.95
2018-02-03T01:57:49.271Z,13.50
2018-02-03T02:00:16.879Z,13.23
2018-02-03T02:02:44.515Z,14.95
2018-02-03T02:05:12.144Z,11.40
2018-02-03T02:07:39.803Z,13.50
2018-02-03T02:10:07.421Z,20.33
2018-02-03T02:12:35.021Z,11.07
2018-02-03T02:15:02.672Z,14.77
2018-02-03T02:17:30.272Z,15.70
2018-02-03T02:19:57.903Z,13.10
2018-02-03T02:22:25.521Z,27.58
2018-02-03T02:24:53.147Z,13.25
2018-02-03T02:27:20.775Z,12.68
2018-02-03T02:29:48.483Z,15.13
2018-02-03T02:32:16.087Z,17.90
2018-02-03T02:34:43.760Z,16.73
2018-02-03T02:37:11.372Z,19.42
2018-02-03T02:39:38.973Z,15.23
2018-02-03T02:42:06.578Z,15.93
2018-02-03T02:44:34.239Z,23.20
2018-02-03T02:47:01.869Z,16.27
2018-02-03T02:49:29.513Z,15.55
2018-02-03T02:51:57.227Z,17.90
2018-02-03T02:54:24.863Z,17.67
2018-02-03T02:56:52.492Z,18.20
2018-02-03T02:59:20.092Z,19.05
2018-02-03T03:01:47.732Z,17.60
2018-02-03T03:04:15.361Z,20.62
2018-02-03T03:06:42.976Z,20.10
2018-02-03T03:09:10.611Z,19.10
2018-02-03T03:11:38.230Z,20.35
2018-02-03T03:14:05.865Z,18.92
2018-02-03T03:16:33.515Z,18.02
2018-02-03T03:19:01.196Z,18.67
2018-02-03T03:21:28.865Z,21.85
2018-02-03T03:23:56.512Z,19.67
2018-02-03T03:26:24.120Z,19.35
2018-02-03T03:28:51.761Z,25.65
2018-02-03T03:31:19.401Z,22.27
2018-02-03T03:33:47.040Z,25.73
2018-02-03T03:36:14.676Z,20.98
2018-02-03T03:38:42.328Z,24.12
2018-02-03T03:41:09.971Z,27.95
2018-02-03T03:43:37.608Z,24.00
2018-02-03T03:46:05.255Z,25.55
2018-02-03T03:48:32.877Z,25.88
2018-02-03T03:51:00.512Z,21.37
2018-02-03T03:53:28.136Z,22.02
2018-02-03T03:55:55.775Z,22.30
2018-02-03T03:58:23.432Z,27.48
2018-02-03T04:00:51.068Z,21.40
2018-02-03T04:03:18.699Z,23.85
2018-02-03T04:05:46.334Z,21.00
2018-02-03T04:08:13.988Z,27.73
2018-02-03T04:10:41.599Z,25.02
2018-02-03T04:13:09.248Z,22.98
2018-02-03T04:15:36.895Z,22.92
2018-02-03T04:18:04.523Z,22.92
2018-02-03T04:20:32.175Z,26.20
2018-02-03T04:22:59.811Z,20.67
2018-02-03T04:25:27.508Z,22.98
2018-02-03T04:27:55.140Z,24.67
2018-02-03T04:30:22.808Z,22.58
2018-02-03T04:32:50.447Z,27.65
2018-02-03T04:35:18.116Z,22.67
2018-02-03T04:37:45.757Z,20.10
2018-02-03T04:40:13.361Z,22.40
2018-02-03T04:42:41.027Z,25.92
2018-02-03T04:45:08.680Z,26.73
2018-02-03T04:47:36.336Z,26.40
2018-02-03T04:50:04.043Z,26.15
2018-02-03T04:52:31.644Z,21.40
2018-02-03T04:54:59.320Z,22.67
2018-02-03T04:57:26.956Z,25.65
2018-02-03T04:59:54.600Z,23.75
2018-02-03T05:02:22.236Z,31.12
2018-02-03T05:04:49.835Z,26.83
2018-02-03T05:07:17.500Z,25.23
2018-02-03T05:09:45.123Z,30.17
2018-02-03T05:12:12.799Z,30.27
2018-02-03T05:14:40.438Z,25.15
2018-02-03T05:17:08.090Z,22.05
2018-02-03T05:19:35.724Z,23.10
2018-02-03T05:22:03.340Z,21.27
2018-02-03T05:24:31.032Z,19.60
2018-02-03T05:26:58.667Z,19.75
2018-02-03T05:29:26.295Z,19.80
2018-02-03T05:31:53.956Z,18.83
2018-02-03T05:34:21.630Z,23.55
2018-02-03T05:36:49.272Z,28.30
2018-02-03T05:39:16.955Z,41.05
2018-02-03T05:41:44.599Z,23.00
2018-02-03T05:44:12.252Z,35.33
2018-02-03T05:46:39.951Z,39.22
2018-02-03T05:49:07.648Z,30.45
2018-02-03T05:51:35.300Z,22.73
2018-02-03T05:54:02.935Z,26.00
2018-02-03T05:56:30.567Z,25.85
2018-02-03T05:58:58.220Z,27.95
2018-02-03T06:01:25.859Z,35.60
2018-02-03T06:03:53.488Z,31.12
2018-02-03T06:06:21.100Z,31.73
2018-02-03T06:08:48.697Z,25.80
2018-02-03T06:11:16.307Z,25.70
2018-02-03T06:13:43.943Z,27.45
2018-02-03T06:16:11.591Z,33.08
2018-02-03T06:18:39.216Z,33.85
2018-02-03T06:21:06.867Z,32.20
2018-02-03T06:23:34.513Z,32.20
2018-02-03T06:26:02.171Z,37.63
2018-02-03T06:28:29.767Z,34.92
2018-02-03T06:30:57.406Z,36.53
2018-02-03T06:33:25.037Z,72.78
2018-02-03T06:35:52.683Z,42.78
2018-02-03T06:38:20.315Z,43.65
2018-02-03T06:40:47.940Z,48.05
2018-02-03T06:43:15.583Z,55.22
2018-02-03T06:45:43.192Z,46.88
2018-02-03T06:48:10.792Z,44.30
2018-02-03T06:50:38.444Z,54.03
2018-02-03T06:53:06.100Z,52.50
2018-02-03T06:55:33.745Z,56.50
2018-02-03T06:58:01.387Z,41.95
2018-02-03T07:00:29.027Z,31.30
2018-02-03T07:02:56.707Z,22.65
2018-02-03T07:05:24.432Z,15.43
2018-02-03T07:07:53.407Z,16.62
2018-02-03T07:10:31.705Z,14.70
2018-02-03T07:12:59.723Z,12.73
2018-02-03T07:15:29.881Z,11.48
2018-02-03T07:24:22.481Z,11.23
2018-02-03T07:26:59.387Z,8.90
2018-02-03T07:32:53.709Z,4.97
2018-02-03T07:35:24.440Z,5.75
2018-02-03T07:37:52.529Z,4.62
2018-02-03T07:40:25.387Z,3.95
2018-02-03T07:42:57.742Z,6.97
2018-02-03T07:45:26.220Z,5.85
2018-02-03T07:47:53.938Z,6.50
2018-02-03T07:50:21.798Z,8.07
2018-02-03T07:52:49.468Z,7.90
2018-02-03T07:55:17.101Z,5.00
2018-02-03T07:57:44.770Z,6.03
2018-02-03T08:00:12.451Z,7.70
2018-02-03T08:02:40.130Z,6.22
2018-02-03T08:05:07.878Z,6.20
2018-02-03T08:07:35.635Z,6.03
2018-02-03T08:10:03.429Z,4.97
2018-02-03T08:12:31.123Z,7.57
2018-02-03T08:14:58.776Z,8.05
2018-02-03T08:17:26.412Z,10.38
2018-02-03T08:19:54.004Z,9.30
2018-02-03T08:22:23.697Z,9.82
2018-02-03T08:24:51.307Z,8.02
2018-02-03T08:27:18.936Z,10.82
2018-02-03T08:29:46.571Z,8.55
2018-02-03T08:32:14.227Z,13.60
2018-02-03T08:34:41.860Z,11.77
2018-02-03T08:37:09.462Z,13.40
2018-02-03T08:39:37.104Z,13.80
2018-02-03T08:42:04.780Z,13.27
2018-02-03T08:44:32.488Z,13.90
2018-02-03T08:47:00.110Z,17.95
2018-02-03T08:49:27.740Z,10.93
2018-02-03T08:51:55.335Z,14.05
2018-02-03T08:54:22.983Z,15.43
2018-02-03T08:56:50.637Z,14.82
2018-02-03T08:59:18.243Z,20.20
2018-02-03T09:01:45.888Z,20.05
2018-02-03T09:04:13.495Z,21.42
2018-02-03T09:06:41.910Z,22.87
2018-02-03T09:09:09.496Z,15.40
2018-02-03T09:11:37.145Z,16.02
2018-02-03T09:14:04.871Z,16.98
2018-02-03T09:16:32.480Z,16.05
2018-02-03T09:19:00.152Z,16.60
2018-02-03T09:21:27.765Z,12.40
2018-02-03T09:23:55.413Z,15.77
2018-02-03T09:26:24.012Z,21.05
2018-02-03T09:28:51.644Z,11.20
2018-02-03T09:31:19.279Z,14.23
2018-02-03T09:33:46.871Z,10.00
2018-02-03T09:36:14.476Z,12.55
2018-02-03T09:38:42.099Z,10.45
2018-02-03T09:41:09.701Z,11.25
2018-02-03T09:43:37.311Z,13.43
2018-02-03T09:46:04.956Z,8.30
2018-02-03T09:48:32.555Z,10.23
2018-02-03T09:51:00.143Z,12.48
2018-02-03T09:53:27.836Z,10.23
2018-02-03T09:55:55.456Z,9.52
2018-02-03T09:58:23.112Z,17.08
2018-02-03T10:00:50.752Z,16.48
2018-02-03T10:03:18.356Z,15.63
2018-02-03T10:05:45.957Z,13.55
2018-02-03T10:08:14.340Z,19.60
2018-02-03T10:10:41.992Z,19.35
2018-02-03T10:13:09.643Z,26.73
2018-02-03T10:15:37.288Z,20.27
2018-02-03T10:18:04.895Z,19.67
2018-02-03T10:20:32.503Z,18.75
2018-02-03T10:23:00.104Z,26.00
2018-02-03T10:25:27.720Z,28.60
2018-02-03T10:27:55.316Z,17.10
2018-02-03T10:30:22.920Z,16.80
2018-02-03T10:32:50.532Z,11.18
2018-02-03T10:35:18.160Z,13.38
2018-02-03T10:37:45.763Z,8.70
2018-02-03T10:40:13.400Z,11.60
2018-02-03T10:42:41.007Z,12.55
2018-02-03T10:45:08.643Z,11.90
2018-02-03T10:47:37.029Z,11.60
2018-02-03T10:50:04.643Z,11.77
2018-02-03T10:52:32.240Z,13.80
2018-02-03T10:54:59.844Z,15.27
2018-02-03T10:57:27.439Z,13.88
2018-02-03T10:59:55.036Z,12.65
2018-02-03T11:02:22.693Z,13.95
2018-02-03T11:04:50.309Z,11.30
2018-02-03T11:07:28.764Z,11.02
2018-02-03T11:09:57.389Z,16.95
2018-02-03T11:12:25.016Z,18.67
2018-02-03T11:14:52.936Z,14.05
2018-02-03T11:17:20.552Z,16.20
2018-02-03T11:19:52.148Z,13.35
2018-02-03T11:22:20.703Z,12.77
2018-02-03T11:24:49.288Z,13.75
2018-02-03T11:27:20.843Z,12.68
2018-02-03T11:29:52.712Z,15.75
2018-02-03T11:32:24.391Z,11.93
2018-02-03T11:34:53.776Z,10.45
2018-02-03T11:37:22.190Z,14.98
2018-02-03T11:39:53.524Z,12.90
2018-02-03T11:42:25.164Z,8.68
2018-02-03T11:44:57.018Z,15.45
2018-02-03T11:47:26.627Z,13.38
2018-02-03T11:50:05.111Z,11.02
2018-02-03T11:52:32.707Z,10.73
2018-02-03T11:55:01.314Z,12.40
2018-02-03T11:57:39.892Z,10.23
2018-02-03T12:00:18.525Z,10.40
2018-02-03T12:02:48.148Z,11.00
2018-02-03T12:05:30.576Z,10.45
2018-02-03T12:07:58.204Z,12.07
2018-02-03T12:10:25.872Z,11.90
2018-02-03T12:12:55.534Z,10.98
2018-02-03T12:15:23.198Z,14.10
2018-02-03T12:17:52.776Z,13.23
2018-02-03T12:20:25.959Z,15.27
2018-02-03T12:22:58.952Z,12.65
2018-02-03T12:25:26.568Z,10.70
2018-02-03T12:27:54.170Z,12.63
2018-02-03T12:30:22.780Z,14.30
2018-02-03T12:32:52.222Z,13.05
2018-02-03T12:35:37.928Z,13.05
2018-02-03T12:38:06.553Z,10.25
2018-02-03T12:40:34.916Z,15.25
2018-02-03T12:43:02.524Z,12.48
2018-02-03T12:45:30.195Z,16.70
2018-02-03T12:47:57.797Z,15.50
2018-02-03T12:50:25.410Z,15.95
2018-02-03T12:52:53.048Z,17.60
2018-02-03T12:55:20.663Z,16.98
2018-02-03T12:57:49.122Z,15.35
2018-02-03T13:00:16.720Z,15.77
2018-02-03T13:02:44.323Z,17.52
2018-02-03T13:05:11.953Z,19.08
2018-02-03T13:07:41.507Z,17.10
2018-02-03T13:10:09.111Z,20.73
2018-02-03T13:12:36.723Z,19.95
2018-02-03T13:15:04.386Z,20.23
2018-02-03T13:17:32.047Z,18.83
2018-02-03T13:19:59.652Z,19.65
2018-02-03T13:22:28.040Z,21.30
2018-02-03T13:24:56.458Z,16.98
2018-02-03T13:27:24.060Z,16.58
2018-02-03T13:29:51.701Z,21.67
2018-02-03T13:32:20.327Z,19.27
2018-02-03T13:34:47.936Z,17.52
2018-02-03T13:37:15.544Z,22.62
2018-02-03T13:39:43.175Z,19.08
2018-02-03T13:42:16.611Z,17.77
2018-02-03T13:44:44.225Z,20.52
2018-02-03T13:47:11.828Z,19.30
2018-02-03T13:49:41.469Z,23.42
2018-02-03T13:52:09.855Z,24.50
2018-02-03T13:54:38.215Z,23.92
2018-02-03T13:57:06.806Z,19.58
2018-02-03T13:59:34.435Z,30.90
2018-02-03T14:02:03.092Z,31.58
2018-02-03T14:04:30.751Z,25.65
2018-02-03T14:06:58.351Z,30.20
2018-02-03T14:09:25.970Z,21.65
2018-02-03T14:11:54.351Z,25.52
2018-02-03T14:14:21.985Z,19.30
2018-02-03T14:16:49.590Z,20.62
2018-02-03T14:19:17.954Z,18.75
2018-02-03T14:21:45.542Z,19.42
2018-02-03T14:24:19.538Z,18.87
2018-02-03T14:26:47.166Z,23.17
2018-02-03T14:29:33.615Z,19.50
2018-02-03T14:32:01.995Z,20.37
2018-02-03T14:34:32.303Z,17.42
2018-02-03T14:37:01.978Z,23.70
2018-02-03T14:39:29.627Z,20.02
2018-02-03T14:41:57.231Z,17.52
2018-02-03T14:44:24.855Z,15.10
2018-02-03T14:46:52.496Z,22.13
2018-02-03T14:49:20.113Z,20.48
2018-02-03T14:51:47.751Z,17.35
2018-02-03T14:54:15.343Z,23.45
2018-02-03T14:56:42.992Z,22.62
2018-02-03T14:59:10.588Z,22.10
2018-02-03T15:01:38.244Z,22.13
2018-02-03T15:04:05.844Z,24.55
2018-02-03T15:06:33.479Z,15.32
2018-02-03T15:09:01.130Z,15.85
2018-02-03T15:11:28.774Z,19.65
2018-02-03T15:13:56.435Z,18.40
2018-02-03T15:16:24.164Z,22.65
2018-02-03T15:18:51.786Z,18.87
2018-02-03T15:21:19.408Z,18.60
2018-02-03T15:23:47.791Z,16.25
2018-02-03T15:26:15.387Z,19.48
2018-02-03T15:28:42.976Z,16.33
2018-02-03T15:31:10.652Z,18.83
2018-02-03T15:33:39.354Z,15.85
2018-02-03T15:36:07.002Z,14.82
2018-02-03T15:38:34.603Z,16.83
2018-02-03T15:41:02.213Z,19.92
2018-02-03T15:43:29.824Z,16.70
2018-02-03T15:45:57.671Z,17.15
2018-02-03T15:48:25.339Z,19.48
2018-02-03T15:50:53.966Z,19.23
2018-02-03T15:53:21.583Z,16.62
2018-02-03T15:55:49.264Z,18.65
2018-02-03T15:58:16.915Z,20.02
2018-02-03T16:00:44.570Z,18.15
2018-02-03T16:03:12.315Z,20.33
2018-02-03T16:05:40.688Z,17.27
2018-02-03T16:08:08.348Z,21.08
2018-02-03T16:10:36.292Z,21.83
2018-02-03T16:13:03.921Z,17.58
2018-02-03T16:15:31.549Z,19.23
2018-02-03T16:17:59.217Z,18.50
2018-02-03T16:20:26.829Z,17.08
2018-02-03T16:22:54.464Z,18.65
2018-02-03T16:25:22.838Z,17.70
2018-02-03T16:27:50.530Z,20.80
2018-02-03T16:30:18.171Z,21.90
2018-02-03T16:32:45.796Z,17.15
2018-02-03T16:35:13.417Z,21.25
2018-02-03T16:37:41.059Z,23.25
2018-02-03T16:40:08.692Z,23.02
2018-02-03T16:42:36.334Z,21.75
2018-02-03T16:45:04.015Z,24.27
2018-02-03T16:47:31.662Z,25.42
2018-02-03T16:49:59.311Z,25.65
2018-02-03T16:52:26.920Z,21.98
2018-02-03T16:54:54.528Z,24.08
2018-02-03T16:57:22.175Z,26.12
2018-02-03T16:59:49.814Z,27.45
2018-02-03T17:02:17.440Z,27.80
2018-02-03T17:04:45.059Z,34.78
2018-02-03T17:07:12.715Z,41.13
2018-02-03T17:09:40.336Z,28.20
2018-02-03T17:12:07.942Z,32.42
2018-02-03T17:14:35.617Z,34.72
2018-02-03T17:17:03.265Z,37.30
2018-02-03T17:19:30.937Z,39.65
2018-02-03T17:21:58.633Z,33.58
2018-02-03T17:24:27.229Z,33.50
2018-02-03T17:26:55.866Z,24.30
2018-02-03T17:29:27.718Z,32.20
2018-02-03T17:31:55.401Z,27.25
2018-02-03T17:34:23.127Z,25.25
2018-02-03T17:37:01.339Z,25.08
2018-02-03T17:39:28.980Z,25.90
2018-02-03T17:41:56.647Z,23.15
2018-02-03T17:44:24.338Z,30.67
2018-02-03T17:47:10.783Z,25.05
2018-02-03T17:49:38.500Z,25.83
2018-02-03T17:52:06.867Z,24.67
2018-02-03T17:54:34.559Z,28.38
2018-02-03T17:57:07.873Z,26.90
2018-02-03T17:59:35.504Z,32.42
2018-02-03T18:02:03.978Z,31.12
2018-02-03T18:04:31.622Z,33.13
2018-02-03T18:07:05.217Z,29.77
2018-02-03T18:09:32.845Z,30.15
2018-02-03T18:12:04.996Z,29.50
2018-02-03T18:14:43.500Z,26.23
2018-02-03T18:17:12.914Z,35.20
2018-02-03T18:19:43.287Z,31.27
2018-02-03T18:22:10.902Z,34.85
2018-02-03T18:24:39.279Z,33.10
2018-02-03T18:27:08.900Z,22.87
2018-02-03T18:29:37.283Z,14.65
2018-02-03T18:32:05.671Z,11.88
2018-02-03T18:34:33.322Z,10.05
2018-02-03T18:37:00.975Z,14.23
2018-02-03T18:39:32.948Z,9.95
2018-02-03T18:42:01.515Z,9.40
2018-02-03T18:44:29.114Z,7.97
2018-02-03T18:46:57.475Z,9.15
2018-02-03T18:49:25.131Z,12.07
2018-02-03T18:52:09.234Z,41.95
2018-02-03T18:54:42.690Z,103.55
2018-02-03T18:57:14.453Z,138.77
2018-02-03T18:59:42.074Z,51.00
2018-02-03T19:02:09.662Z,23.08
2018-02-03T19:04:41.424Z,24.23
2018-02-03T19:07:09.035Z,16.30
2018-02-03T19:09:36.650Z,14.38
2018-02-03T19:12:04.251Z,14.23
2018-02-03T19:14:32.603Z,14.80
2018-02-03T19:17:00.262Z,16.50
2018-02-03T19:19:27.899Z,17.27
2018-02-03T19:21:55.532Z,11.85
2018-02-03T19:24:25.127Z,16.58
2018-02-03T19:26:52.797Z,14.10
2018-02-03T19:29:21.215Z,12.32
2018-02-03T19:31:48.891Z,18.62
2018-02-03T19:34:16.542Z,11.10
2018-02-03T19:36:44.144Z,11.63
2018-02-03T19:39:11.865Z,19.50
2018-02-03T19:41:39.493Z,9.13
2018-02-03T19:44:07.133Z,9.27
2018-02-03T19:46:34.771Z,12.02
2018-02-03T19:49:02.481Z,18.52
2018-02-03T19:51:30.124Z,16.40
2018-02-03T19:53:57.768Z,14.68
2018-02-03T19:56:25.387Z,9.15
2018-02-03T19:58:53.059Z,8.07
2018-02-03T20:01:20.673Z,13.40
2018-02-03T20:03:48.304Z,15.93
2018-02-03T20:06:15.929Z,12.10
2018-02-03T20:08:43.538Z,11.52
2018-02-03T20:11:11.968Z,8.35
2018-02-03T20:13:39.599Z,12.45
2018-02-03T20:16:08.046Z,8.10
2018-02-03T20:18:35.632Z,8.57
2018-02-03T20:21:03.262Z,9.10
2018-02-03T20:23:30.904Z,9.35
2018-02-03T20:26:09.054Z,8.30
2018-02-03T20:28:36.668Z,8.18
2018-02-03T20:31:04.313Z,10.88
2018-02-03T20:33:32.775Z,9.52
2018-02-03T20:36:00.431Z,8.82
2018-02-03T20:38:28.103Z,12.60
2018-02-03T20:40:55.783Z,10.48
2018-02-03T20:43:23.476Z,8.05
2018-02-03T20:45:51.148Z,8.90
2018-02-03T20:48:18.839Z,8.93
2018-02-03T20:50:46.540Z,9.65
2018-02-03T20:53:14.219Z,11.12
2018-02-03T20:55:41.826Z,7.90
2018-02-03T20:58:09.458Z,9.23
2018-02-03T21:00:37.063Z,10.32
2018-02-03T21:03:04.781Z,11.32
2018-02-03T21:05:32.457Z,9.52
2018-02-03T21:08:00.844Z,10.90
2018-02-03T21:10:28.519Z,10.15
2018-02-03T21:12:57.115Z,9.50
2018-02-03T21:15:24.733Z,10.60
2018-02-03T21:17:52.328Z,11.05
2018-02-03T21:20:20.738Z,9.93
2018-02-03T21:22:48.363Z,10.38
2018-02-03T21:25:15.993Z,10.77
2018-02-03T21:27:43.623Z,12.05
2018-02-03T21:30:12.067Z,11.68
2018-02-03T21:32:39.747Z,12.73
2018-02-03T21:35:07.391Z,10.55
2018-02-03T21:37:36.948Z,12.07
2018-02-03T21:40:04.540Z,11.35
2018-02-03T21:42:32.212Z,16.25
2018-02-03T21:44:59.840Z,10.50
2018-02-03T21:47:27.504Z,14.85
2018-02-03T21:49:55.188Z,17.50
2018-02-03T21:52:22.787Z,14.63
2018-02-03T21:54:50.384Z,16.25
2018-02-03T21:57:17.989Z,13.62
2018-02-03T21:59:45.607Z,14.82
2018-02-03T22:02:13.299Z,11.18
2018-02-03T22:04:41.017Z,11.98
2018-02-03T22:07:08.640Z,11.32
2018-02-03T22:09:36.253Z,10.85
2018-02-03T22:12:03.916Z,16.02
2018-02-03T22:14:31.512Z,12.85
2018-02-03T22:16:59.121Z,11.25
2018-02-03T22:19:26.728Z,17.27
2018-02-03T22:21:54.327Z,13.82
2018-02-03T22:24:21.936Z,12.93
2018-02-03T22:26:49.544Z,12.25
2018-02-03T22:29:17.146Z,14.93
2018-02-03T22:31:44.756Z,14.98
2018-02-03T22:34:12.360Z,11.95
2018-02-03T22:36:39.968Z,12.20
2018-02-03T22:39:07.567Z,13.40
2018-02-03T22:41:35.193Z,10.95
2018-02-03T22:44:02.797Z,11.75
2018-02-03T22:46:30.407Z,11.73
2018-02-03T22:48:58.018Z,11.45
2018-02-03T22:51:25.687Z,13.10
2018-02-03T22:53:53.287Z,13.75
2018-02-03T22:56:20.904Z,16.98
2018-02-03T22:58:48.511Z,18.25
2018-02-03T23:01:17.044Z,15.45
2018-02-03T23:03:44.704Z,15.43
2018-02-03T23:06:12.308Z,17.62
2018-02-03T23:08:39.963Z,12.30
2018-02-03T23:11:07.571Z,15.27
2018-02-03T23:13:35.232Z,17.37
2018-02-03T23:16:02.836Z,16.50
2018-02-03T23:18:30.429Z,15.20
2018-02-03T23:20:58.043Z,12.23
2018-02-03T23:23:25.644Z,13.80
2018-02-03T23:25:53.267Z,15.27
2018-02-03T23:28:20.908Z,12.85
2018-02-03T23:30:48.565Z,13.70
2018-02-03T23:33:19.499Z,14.35
2018-02-03T23:35:56.474Z,13.38
2018-02-03T23:38:24.203Z,14.23
2018-02-03T23:40:51.894Z,12.98
2018-02-03T23:43:19.519Z,13.30
2018-02-03T23:45:47.151Z,19.45
2018-02-03T23:48:14.762Z,12.93
2018-02-03T23:50:42.429Z,12.20
2018-02-03T23:53:10.050Z,17.05
2018-02-03T23:55:37.670Z,12.23
2018-02-03T23:58:05.337Z,14.05
